Portada
METAR-TAF:

METAR-TAF

Aeroports :

Bainbridge, Geòrgia, Estats Units d'Amèrica

latitud: 30-58N, longitud: 084-38W, altitud: 43 m

Observació

L'informe es va fer fa 5 minuts, a les 17:15 UTC
Vent 13 kt del Est amb ràfegues de 16 kt
Temperatura 30°C
Humitat 62%
Pressió 1020 hPa
Visibilitat: 16.1 km
Cel ennuvolat a una alçada de 3200 ft
Cel ennuvolat a una alçada de 4000 ft

METAR: KBGE 011715Z AUTO 08013G16KT 10SM BKN032 BKN040 30/22 A3013 RMK AO2 T03030223

Hora: 13:20 (17:20 UTC)


TAF: manca

Observacions i pronòstics meteorològics de més de 4000 aeroports (METAR i TAF).

Les estacions disponibles són els punts grocs i vermells al mapa.

Posi el ratolí al punt desitjat per veure el nom de l'estació.

Feu clic per veure les observacions i els pronòstics meteorològics.

Per canviar el mapa: feu clic els botons verds amb una creu de color negre per apropar; al botó verd amb un guió per allunyar la imatge; o en les fletxes verdes per a mapes adjacents.


METAR-TAF: